Time;durP1;ratioP1;P1;durP2;ratioP2;P2;SDS_P1;SDS_P2;PMS_P1;PMS_P2;Temp;Humidity;BMP_temperature;BMP_pressure;BME280_temperature;BME280_humidity;BME280_pressure;Samples;Min_cycle;Max_cycle;Signal;HPM_P1;HPM_P2
2023/12/28 00:01:04;;;;;;;6.63;2.67;;;;;;;;;;5085270;28;20027;-80
2023/12/28 00:03:29;;;;;;;5.07;2.50;;;;;;;;;;5084709;28;20316;-79
2023/12/28 00:05:54;;;;;;;5.30;2.10;;;;;;;;;;5085094;28;20299;-79
2023/12/28 00:08:20;;;;;;;5.93;2.38;;;;;;;;;;5079800;28;20257;-79
2023/12/28 00:10:45;;;;;;;5.20;2.00;;;;;;;;;;5078799;28;20036;-78
2023/12/28 00:13:10;;;;;;;3.83;2.00;;;;;;;;;;5078844;28;20052;-79
2023/12/28 00:15:35;;;;;;;4.45;2.00;;;;;;;;;;5081146;28;20479;-80
2023/12/28 00:18:00;;;;;;;5.97;2.35;;;;;;;;;;5079881;28;20035;-80
2023/12/28 00:20:26;;;;;;;5.00;2.15;;;;;;;;;;5081200;28;20055;-79
2023/12/28 00:22:51;;;;;;;4.38;2.40;;;;;;;;;;5082150;28;20025;-80
2023/12/28 00:25:16;;;;;;;7.97;2.40;;;;;;;;;;5082074;28;20070;-79
2023/12/28 00:27:41;;;;;;;3.47;1.90;;;;;;;;;;5088377;28;20253;-79
2023/12/28 00:30:07;;;;;;;5.47;2.23;;;;;;;;;;5092921;28;20321;-80
2023/12/28 00:32:32;;;;;;;4.35;2.00;;;;;;;;;;5092041;28;20257;-79
2023/12/28 00:34:57;;;;;;;7.00;2.33;;;;;;;;;;5082791;28;20040;-79
2023/12/28 00:37:22;;;;;;;4.97;2.00;;;;;;;;;;5081823;28;20344;-80
2023/12/28 00:39:49;;;;;;;3.40;2.10;;;;;;;;;;5080863;28;20025;-79
2023/12/28 00:42:15;;;;;;;7.18;2.03;;;;;;;;;;5081465;28;20724;-79
2023/12/28 00:44:41;;;;;;;5.18;2.40;;;;;;;;;;5082448;28;20048;-80
2023/12/28 00:47:06;;;;;;;4.20;1.75;;;;;;;;;;5082569;28;20089;-79
2023/12/28 00:49:31;;;;;;;5.07;1.92;;;;;;;;;;5080712;28;20056;-79
2023/12/28 00:51:57;;;;;;;6.10;1.98;;;;;;;;;;5081085;28;20224;-79
2023/12/28 00:54:22;;;;;;;4.07;1.90;;;;;;;;;;5079920;28;20036;-79
2023/12/28 00:56:47;;;;;;;5.60;2.30;;;;;;;;;;5080433;28;20259;-80
2023/12/28 00:59:12;;;;;;;7.33;2.37;;;;;;;;;;5081085;28;20285;-79
2023/12/28 01:01:37;;;;;;;8.00;2.23;;;;;;;;;;5080311;28;20273;-79
2023/12/28 01:04:03;;;;;;;5.85;2.40;;;;;;;;;;5079918;28;20280;-80
2023/12/28 01:06:28;;;;;;;3.72;2.05;;;;;;;;;;5080091;28;20099;-80
2023/12/28 01:08:55;;;;;;;3.85;2.08;;;;;;;;;;5081282;28;20024;-79
2023/12/28 01:11:20;;;;;;;5.60;2.10;;;;;;;;;;5081608;28;20039;-78
2023/12/28 01:13:46;;;;;;;8.25;2.15;;;;;;;;;;5081227;28;20460;-79
2023/12/28 01:16:14;;;;;;;4.78;2.03;;;;;;;;;;5081253;28;20028;-81
2023/12/28 01:18:39;;;;;;;5.68;2.17;;;;;;;;;;5083375;28;20028;-80
2023/12/28 01:21:05;;;;;;;5.45;2.45;;;;;;;;;;5083064;28;20032;-79
2023/12/28 01:23:31;;;;;;;5.85;2.33;;;;;;;;;;5082524;28;20024;-80
2023/12/28 01:25:56;;;;;;;6.38;2.38;;;;;;;;;;5083148;28;20039;-80
2023/12/28 01:28:21;;;;;;;5.85;2.42;;;;;;;;;;5081443;28;20020;-80
2023/12/28 01:30:47;;;;;;;4.82;1.80;;;;;;;;;;5083471;28;20034;-80
2023/12/28 01:33:12;;;;;;;4.87;2.30;;;;;;;;;;5083691;28;20115;-80
2023/12/28 01:35:37;;;;;;;4.67;2.37;;;;;;;;;;5083848;28;20292;-79
2023/12/28 01:38:03;;;;;;;6.90;2.50;;;;;;;;;;5083880;28;20257;-80
2023/12/28 01:40:28;;;;;;;5.25;2.15;;;;;;;;;;5085237;28;20253;-81
2023/12/28 01:42:54;;;;;;;5.80;2.90;;;;;;;;;;5083922;28;20020;-80
2023/12/28 01:45:19;;;;;;;8.40;2.95;;;;;;;;;;5081403;28;20124;-80
2023/12/28 01:47:45;;;;;;;4.47;2.10;;;;;;;;;;5083703;28;20020;-80
2023/12/28 01:50:10;;;;;;;5.47;2.38;;;;;;;;;;5082587;28;20024;-78
2023/12/28 01:52:36;;;;;;;4.15;2.28;;;;;;;;;;5085877;28;20044;-80
2023/12/28 01:55:03;;;;;;;7.20;2.30;;;;;;;;;;5086371;28;20017;-79
2023/12/28 01:57:29;;;;;;;3.70;2.00;;;;;;;;;;5087305;28;20046;-80
2023/12/28 01:59:54;;;;;;;4.05;2.30;;;;;;;;;;5087183;28;20409;-79
2023/12/28 02:02:22;;;;;;;3.00;1.90;;;;;;;;;;5086923;28;20021;-79
2023/12/28 02:04:47;;;;;;;3.22;2.05;;;;;;;;;;5087487;28;20052;-80
2023/12/28 02:07:13;;;;;;;4.57;2.10;;;;;;;;;;5086681;28;20090;-80
2023/12/28 02:09:38;;;;;;;5.70;2.30;;;;;;;;;;5087604;28;20266;-79
2023/12/28 02:12:04;;;;;;;8.68;2.40;;;;;;;;;;5086689;28;20055;-80
2023/12/28 02:14:29;;;;;;;5.68;2.38;;;;;;;;;;5084904;28;20080;-77
2023/12/28 02:17:03;;;;;;;4.93;2.22;;;;;;;;;;5084770;28;20029;-79
2023/12/28 02:19:40;;;;;;;4.65;2.20;;;;;;;;;;5084141;28;20499;-79
2023/12/28 02:22:07;;;;;;;6.15;2.22;;;;;;;;;;5084304;28;20036;-79
2023/12/28 02:24:32;;;;;;;6.35;2.28;;;;;;;;;;5083834;28;20095;-78
2023/12/28 02:26:58;;;;;;;3.20;2.03;;;;;;;;;;5084422;28;20502;-79
2023/12/28 02:29:23;;;;;;;5.25;2.15;;;;;;;;;;5083014;28;20025;-77
2023/12/28 02:32:01;;;;;;;3.47;1.90;;;;;;;;;;5084284;28;20521;-78
2023/12/28 02:34:32;;;;;;;4.28;2.08;;;;;;;;;;5084941;28;20111;-81
2023/12/28 02:36:59;;;;;;;5.22;2.13;;;;;;;;;;5086682;28;20064;-80
2023/12/28 02:39:26;;;;;;;4.30;2.35;;;;;;;;;;5086716;28;20025;-79
2023/12/28 02:41:51;;;;;;;5.78;2.10;;;;;;;;;;5085482;28;20033;-80
2023/12/28 02:44:17;;;;;;;3.63;2.13;;;;;;;;;;5086524;28;20111;-80
2023/12/28 02:46:43;;;;;;;4.80;2.33;;;;;;;;;;5086721;28;20047;-80
2023/12/28 02:49:10;;;;;;;6.35;2.10;;;;;;;;;;5086025;28;20024;-79
2023/12/28 02:51:35;;;;;;;8.60;1.83;;;;;;;;;;5085947;28;20145;-80
2023/12/28 02:54:00;;;;;;;5.57;2.10;;;;;;;;;;5085598;28;20479;-80
2023/12/28 02:56:26;;;;;;;3.20;1.83;;;;;;;;;;5086889;28;20829;-79
2023/12/28 02:58:51;;;;;;;5.03;2.00;;;;;;;;;;5086824;28;20269;-80
2023/12/28 03:01:16;;;;;;;2.80;1.60;;;;;;;;;;5085859;28;20021;-81
2023/12/28 03:03:41;;;;;;;3.45;1.90;;;;;;;;;;5085319;28;20397;-80
2023/12/28 03:06:07;;;;;;;5.25;2.20;;;;;;;;;;5086145;28;20074;-80
2023/12/28 03:08:32;;;;;;;4.90;2.07;;;;;;;;;;5085163;28;20024;-80
2023/12/28 03:10:57;;;;;;;5.60;2.00;;;;;;;;;;5085963;28;20253;-79
2023/12/28 03:13:22;;;;;;;2.97;1.80;;;;;;;;;;5083574;28;20020;-78
2023/12/28 03:15:48;;;;;;;4.03;2.00;;;;;;;;;;5082976;28;20628;-79
2023/12/28 03:18:13;;;;;;;3.22;1.85;;;;;;;;;;5082872;28;20070;-80
2023/12/28 03:20:38;;;;;;;5.32;1.77;;;;;;;;;;5081976;28;20177;-80
2023/12/28 03:23:04;;;;;;;2.73;1.30;;;;;;;;;;5082546;28;20070;-79
2023/12/28 03:25:29;;;;;;;3.97;1.63;;;;;;;;;;5082587;28;20265;-78
2023/12/28 03:27:54;;;;;;;4.40;1.67;;;;;;;;;;5080827;28;20059;-79
2023/12/28 03:30:20;;;;;;;2.90;1.60;;;;;;;;;;5081953;28;20032;-80
2023/12/28 03:32:45;;;;;;;2.55;1.33;;;;;;;;;;5078821;28;20550;-80
2023/12/28 03:35:10;;;;;;;2.73;1.57;;;;;;;;;;5078192;28;20040;-79
2023/12/28 03:37:35;;;;;;;3.03;1.42;;;;;;;;;;5081015;28;20268;-80
2023/12/28 03:40:01;;;;;;;5.10;1.30;;;;;;;;;;5079705;28;20498;-80
2023/12/28 03:42:26;;;;;;;3.15;1.65;;;;;;;;;;5079785;28;20021;-79
2023/12/28 03:44:51;;;;;;;1.77;1.33;;;;;;;;;;5080736;28;20039;-79
2023/12/28 03:47:17;;;;;;;3.40;1.70;;;;;;;;;;5080249;28;20257;-79
2023/12/28 03:49:42;;;;;;;2.00;1.30;;;;;;;;;;5083289;28;20335;-79
2023/12/28 03:52:07;;;;;;;2.40;1.37;;;;;;;;;;5092286;28;20257;-79
2023/12/28 03:54:32;;;;;;;3.17;1.27;;;;;;;;;;5091850;28;20257;-79
2023/12/28 03:56:57;;;;;;;2.80;1.50;;;;;;;;;;5083286;28;20044;-80
2023/12/28 03:59:23;;;;;;;3.05;1.60;;;;;;;;;;5081678;28;20288;-78
2023/12/28 04:01:48;;;;;;;3.28;1.55;;;;;;;;;;5081215;28;20028;-80
2023/12/28 04:04:13;;;;;;;6.40;2.00;;;;;;;;;;5080279;28;20024;-80
2023/12/28 04:06:38;;;;;;;4.32;1.92;;;;;;;;;;5079490;28;20276;-80
2023/12/28 04:09:04;;;;;;;4.75;2.00;;;;;;;;;;5080869;28;20024;-79
2023/12/28 04:11:29;;;;;;;4.00;2.00;;;;;;;;;;5080151;28;20028;-79
2023/12/28 04:13:54;;;;;;;4.07;1.90;;;;;;;;;;5080297;28;20016;-79
2023/12/28 04:16:20;;;;;;;3.00;1.52;;;;;;;;;;5081501;28;20036;-79
2023/12/28 04:18:45;;;;;;;3.58;1.70;;;;;;;;;;5081143;28;20036;-79
2023/12/28 04:21:12;;;;;;;3.10;1.80;;;;;;;;;;5081537;28;20028;-80
2023/12/28 04:23:39;;;;;;;5.22;2.00;;;;;;;;;;5079342;28;20092;-80
2023/12/28 04:26:04;;;;;;;3.05;1.83;;;;;;;;;;5080328;28;20103;-79
2023/12/28 04:28:29;;;;;;;3.63;1.70;;;;;;;;;;5080983;28;20044;-79
2023/12/28 04:30:55;;;;;;;5.50;2.00;;;;;;;;;;5079975;28;20507;-80
2023/12/28 04:33:20;;;;;;;3.55;1.83;;;;;;;;;;5081440;28;20494;-78
2023/12/28 04:35:45;;;;;;;5.20;2.10;;;;;;;;;;5081256;28;20036;-78
2023/12/28 04:38:11;;;;;;;3.97;1.90;;;;;;;;;;5080833;28;20257;-79
2023/12/28 04:40:36;;;;;;;5.87;1.73;;;;;;;;;;5079411;28;20111;-79
2023/12/28 04:43:01;;;;;;;3.05;1.83;;;;;;;;;;5081504;28;20395;-79
2023/12/28 04:45:27;;;;;;;3.53;1.65;;;;;;;;;;5080913;28;20051;-79
2023/12/28 04:47:52;;;;;;;3.83;1.63;;;;;;;;;;5080930;28;20070;-80
2023/12/28 04:50:18;;;;;;;2.67;1.40;;;;;;;;;;5084967;28;20024;-82
2023/12/28 04:52:43;;;;;;;4.47;1.93;;;;;;;;;;5080305;28;20021;-80
2023/12/28 04:55:08;;;;;;;3.37;1.60;;;;;;;;;;5081082;28;20325;-79
2023/12/28 04:57:33;;;;;;;2.40;1.40;;;;;;;;;;5080764;28;20261;-78
2023/12/28 04:59:58;;;;;;;2.87;1.40;;;;;;;;;;5081314;28;20032;-79
2023/12/28 05:02:24;;;;;;;2.13;1.30;;;;;;;;;;5079747;28;20279;-79
2023/12/28 05:04:49;;;;;;;2.70;1.47;;;;;;;;;;5080398;28;20020;-79
2023/12/28 05:07:14;;;;;;;5.60;1.40;;;;;;;;;;5081300;28;20297;-80
2023/12/28 05:09:39;;;;;;;4.07;1.70;;;;;;;;;;5080322;28;20264;-79
2023/12/28 05:12:05;;;;;;;2.17;1.33;;;;;;;;;;5080519;28;20265;-79
2023/12/28 05:14:30;;;;;;;2.88;1.50;;;;;;;;;;5080578;28;20260;-78
2023/12/28 05:16:55;;;;;;;3.33;1.77;;;;;;;;;;5081083;28;20024;-79
2023/12/28 05:19:20;;;;;;;3.40;2.00;;;;;;;;;;5080530;28;20281;-80
2023/12/28 05:21:46;;;;;;;2.77;1.50;;;;;;;;;;5081241;28;20268;-80
2023/12/28 05:24:12;;;;;;;2.72;1.35;;;;;;;;;;5081024;28;20277;-79
2023/12/28 05:26:37;;;;;;;2.70;1.50;;;;;;;;;;5079158;28;20054;-80
2023/12/28 05:29:03;;;;;;;3.17;1.35;;;;;;;;;;5080825;28;20035;-79
2023/12/28 05:31:28;;;;;;;3.92;1.50;;;;;;;;;;5080754;28;20376;-80
2023/12/28 05:33:53;;;;;;;2.70;1.40;;;;;;;;;;5080461;28;20017;-78
2023/12/28 05:36:18;;;;;;;2.85;1.33;;;;;;;;;;5081139;28;20115;-79
2023/12/28 05:38:44;;;;;;;5.40;1.63;;;;;;;;;;5079294;28;20495;-79
2023/12/28 05:41:09;;;;;;;4.13;1.80;;;;;;;;;;5080976;28;20032;-78
2023/12/28 05:43:35;;;;;;;3.75;1.50;;;;;;;;;;5080537;28;20031;-79
2023/12/28 05:46:00;;;;;;;7.72;1.77;;;;;;;;;;5079395;28;20039;-79
2023/12/28 05:48:25;;;;;;;3.33;1.43;;;;;;;;;;5081360;28;20024;-79
2023/12/28 05:50:51;;;;;;;4.20;1.60;;;;;;;;;;5080774;28;20281;-79
2023/12/28 05:53:16;;;;;;;6.00;1.45;;;;;;;;;;5079187;28;20020;-79
2023/12/28 05:55:41;;;;;;;2.38;1.40;;;;;;;;;;5079697;28;20490;-79
2023/12/28 05:58:06;;;;;;;3.83;1.90;;;;;;;;;;5079912;28;20043;-80
2023/12/28 06:00:32;;;;;;;3.20;1.60;;;;;;;;;;5081495;28;20266;-79
2023/12/28 06:02:57;;;;;;;2.53;1.60;;;;;;;;;;5079390;28;20027;-79
2023/12/28 06:05:22;;;;;;;6.75;1.60;;;;;;;;;;5080945;28;20043;-79
2023/12/28 06:07:47;;;;;;;2.97;1.45;;;;;;;;;;5079272;28;20054;-79
2023/12/28 06:10:13;;;;;;;2.88;1.80;;;;;;;;;;5078877;28;20024;-79
2023/12/28 06:12:38;;;;;;;5.35;1.75;;;;;;;;;;5080668;28;20522;-79
2023/12/28 06:15:03;;;;;;;2.70;1.63;;;;;;;;;;5075196;28;20024;-79
2023/12/28 06:17:29;;;;;;;4.15;1.60;;;;;;;;;;5074415;28;20492;-79
2023/12/28 06:19:54;;;;;;;3.50;1.90;;;;;;;;;;5074751;28;20103;-78
2023/12/28 06:22:19;;;;;;;3.00;1.75;;;;;;;;;;5076085;28;20293;-77
2023/12/28 06:24:45;;;;;;;3.67;1.70;;;;;;;;;;5072550;28;20025;-79
2023/12/28 06:27:10;;;;;;;5.55;1.90;;;;;;;;;;5073536;28;20118;-77
2023/12/28 06:29:36;;;;;;;5.03;1.70;;;;;;;;;;5073556;28;20025;-80
2023/12/28 06:32:01;;;;;;;3.10;2.10;;;;;;;;;;5073980;28;20027;-79
2023/12/28 06:34:26;;;;;;;3.20;1.85;;;;;;;;;;5072335;28;20333;-79
2023/12/28 06:36:52;;;;;;;7.53;1.70;;;;;;;;;;5074839;28;20020;-77
2023/12/28 06:39:17;;;;;;;3.55;1.52;;;;;;;;;;5079840;28;20314;-78
2023/12/28 06:41:42;;;;;;;4.97;2.05;;;;;;;;;;5080578;28;20021;-79
2023/12/28 06:44:08;;;;;;;4.47;2.15;;;;;;;;;;5081387;28;20059;-79
2023/12/28 06:46:33;;;;;;;5.55;2.30;;;;;;;;;;5080545;28;20118;-78
2023/12/28 06:48:59;;;;;;;3.42;2.10;;;;;;;;;;5081957;28;20483;-78
2023/12/28 06:51:24;;;;;;;3.65;1.80;;;;;;;;;;5081965;28;20024;-78
2023/12/28 06:53:49;;;;;;;3.75;2.10;;;;;;;;;;5081543;28;20016;-79
2023/12/28 06:56:15;;;;;;;11.40;2.10;;;;;;;;;;5080595;28;20029;-79
2023/12/28 06:58:41;;;;;;;4.20;1.98;;;;;;;;;;5083466;28;20024;-80
2023/12/28 07:01:06;;;;;;;4.32;2.05;;;;;;;;;;5085012;28;20025;-81
2023/12/28 07:03:32;;;;;;;4.30;1.60;;;;;;;;;;5083292;28;20031;-81
2023/12/28 07:05:58;;;;;;;4.68;2.00;;;;;;;;;;5084299;28;20032;-80
2023/12/28 07:08:24;;;;;;;3.47;1.83;;;;;;;;;;5084679;28;20024;-80
2023/12/28 07:10:49;;;;;;;3.55;1.77;;;;;;;;;;5084699;28;20024;-79
2023/12/28 07:13:14;;;;;;;4.87;1.70;;;;;;;;;;5093448;28;20016;-79
2023/12/28 07:15:39;;;;;;;3.17;1.90;;;;;;;;;;5093967;28;20332;-79
2023/12/28 07:18:05;;;;;;;3.03;1.80;;;;;;;;;;5091024;28;20085;-80
2023/12/28 07:20:30;;;;;;;4.78;2.10;;;;;;;;;;5086153;28;20257;-80
2023/12/28 07:22:55;;;;;;;5.30;1.93;;;;;;;;;;5086611;28;20376;-78
2023/12/28 07:25:21;;;;;;;3.47;1.55;;;;;;;;;;5086211;28;20693;-79
2023/12/28 07:27:46;;;;;;;2.90;1.73;;;;;;;;;;5085864;28;20072;-80
2023/12/28 07:30:12;;;;;;;5.82;1.77;;;;;;;;;;5086231;28;20051;-80
2023/12/28 07:32:37;;;;;;;3.03;1.90;;;;;;;;;;5084832;28;20031;-80
2023/12/28 07:35:02;;;;;;;4.68;2.00;;;;;;;;;;5084898;28;20084;-80
2023/12/28 07:37:28;;;;;;;2.85;1.65;;;;;;;;;;5081729;28;20025;-79
2023/12/28 07:39:53;;;;;;;3.75;1.80;;;;;;;;;;5081323;28;20078;-79
2023/12/28 07:42:18;;;;;;;3.25;1.60;;;;;;;;;;5082016;28;20041;-79
2023/12/28 07:44:43;;;;;;;4.50;1.60;;;;;;;;;;5081617;28;20154;-78
2023/12/28 07:47:09;;;;;;;5.03;1.75;;;;;;;;;;5081464;28;20024;-79
2023/12/28 07:49:34;;;;;;;4.80;1.35;;;;;;;;;;5081674;28;20029;-79
2023/12/28 07:51:59;;;;;;;2.73;1.40;;;;;;;;;;5081411;28;20036;-80
2023/12/28 07:54:24;;;;;;;2.28;1.30;;;;;;;;;;5082898;28;20344;-80
2023/12/28 07:56:50;;;;;;;2.72;1.30;;;;;;;;;;5081992;28;20500;-77
2023/12/28 07:59:15;;;;;;;2.30;1.10;;;;;;;;;;5082599;28;20111;-79
2023/12/28 08:01:40;;;;;;;3.90;1.30;;;;;;;;;;5082824;28;20293;-79
2023/12/28 08:04:05;;;;;;;2.28;1.10;;;;;;;;;;5081229;28;20281;-79
2023/12/28 08:06:32;;;;;;;1.70;1.10;;;;;;;;;;5083265;28;20084;-80
2023/12/28 08:09:00;;;;;;;3.67;1.23;;;;;;;;;;5083019;28;20025;-80
2023/12/28 08:11:26;;;;;;;2.20;1.25;;;;;;;;;;5082990;28;20510;-79
2023/12/28 08:13:51;;;;;;;1.23;0.95;;;;;;;;;;5081058;28;20024;-80
2023/12/28 08:16:16;;;;;;;2.07;1.13;;;;;;;;;;5082731;28;20020;-80
2023/12/28 08:18:41;;;;;;;2.17;1.30;;;;;;;;;;5081039;28;20253;-79
2023/12/28 08:21:06;;;;;;;2.03;1.13;;;;;;;;;;5081831;28;20258;-79
2023/12/28 08:23:32;;;;;;;2.37;1.23;;;;;;;;;;5082565;28;20273;-78
2023/12/28 08:25:57;;;;;;;2.88;1.10;;;;;;;;;;5081049;28;20288;-79
2023/12/28 08:28:23;;;;;;;5.07;1.23;;;;;;;;;;5081916;28;20078;-79
2023/12/28 08:30:48;;;;;;;2.42;1.13;;;;;;;;;;5083028;28;20257;-79
2023/12/28 08:33:13;;;;;;;2.63;1.13;;;;;;;;;;5082265;28;20020;-79
2023/12/28 08:35:39;;;;;;;2.95;1.30;;;;;;;;;;5081018;28;20020;-80
2023/12/28 08:38:05;;;;;;;2.17;1.20;;;;;;;;;;5081356;28;20029;-78
2023/12/28 08:40:31;;;;;;;4.22;2.15;;;;;;;;;;5081676;28;20051;-80
2023/12/28 08:42:56;;;;;;;4.35;2.40;;;;;;;;;;5081436;28;20480;-80
2023/12/28 08:45:21;;;;;;;3.00;1.30;;;;;;;;;;5079740;28;20024;-80
2023/12/28 08:47:48;;;;;;;3.55;1.30;;;;;;;;;;5083865;28;20423;-81
2023/12/28 08:50:13;;;;;;;1.73;1.17;;;;;;;;;;5084460;28;20079;-80
2023/12/28 08:52:38;;;;;;;3.17;1.52;;;;;;;;;;5084433;28;20084;-80
2023/12/28 08:55:05;;;;;;;1.47;1.17;;;;;;;;;;5085131;28;20092;-79
2023/12/28 08:57:30;;;;;;;2.35;1.20;;;;;;;;;;5084797;28;20336;-79
2023/12/28 08:59:55;;;;;;;1.95;1.30;;;;;;;;;;5082743;28;20475;-80
2023/12/28 09:02:20;;;;;;;3.17;1.27;;;;;;;;;;5084469;28;20465;-80
2023/12/28 09:04:45;;;;;;;2.67;1.53;;;;;;;;;;5085038;28;20052;-79
2023/12/28 09:07:11;;;;;;;4.47;1.80;;;;;;;;;;5084186;28;20257;-80
2023/12/28 09:09:36;;;;;;;6.05;2.13;;;;;;;;;;5082162;28;20024;-81
2023/12/28 09:12:01;;;;;;;3.40;1.70;;;;;;;;;;5084285;28;20025;-80
2023/12/28 09:14:27;;;;;;;3.17;1.63;;;;;;;;;;5083266;28;20119;-79
2023/12/28 09:16:52;;;;;;;3.63;1.97;;;;;;;;;;5083587;28;20059;-80
2023/12/28 09:19:17;;;;;;;3.30;1.97;;;;;;;;;;5084090;28;20249;-79
2023/12/28 09:21:42;;;;;;;5.72;1.98;;;;;;;;;;5084838;28;20269;-80
2023/12/28 09:24:08;;;;;;;3.03;1.48;;;;;;;;;;5082703;28;20089;-80
2023/12/28 09:26:33;;;;;;;2.70;1.57;;;;;;;;;;5084319;28;20028;-80
2023/12/28 09:28:59;;;;;;;1.90;1.30;;;;;;;;;;5084022;28;20264;-80
2023/12/28 09:31:24;;;;;;;2.25;1.30;;;;;;;;;;5083987;28;20483;-79
2023/12/28 09:33:49;;;;;;;2.10;1.20;;;;;;;;;;5083506;28;20027;-80
2023/12/28 09:36:15;;;;;;;3.03;1.45;;;;;;;;;;5083643;28;20249;-79
2023/12/28 09:38:40;;;;;;;2.72;1.17;;;;;;;;;;5078367;28;20036;-78
2023/12/28 09:41:14;;;;;;;3.38;1.30;;;;;;;;;;5082280;28;20043;-80
2023/12/28 09:43:53;;;;;;;2.90;1.42;;;;;;;;;;5081324;28;20035;-78
2023/12/28 09:46:18;;;;;;;3.70;1.00;;;;;;;;;;5079995;28;20493;-79
2023/12/28 09:48:44;;;;;;;2.30;1.20;;;;;;;;;;5080644;28;20033;-80
2023/12/28 09:51:10;;;;;;;2.17;1.08;;;;;;;;;;5082058;28;20035;-79
2023/12/28 09:53:36;;;;;;;2.75;0.98;;;;;;;;;;5082833;28;20092;-79
2023/12/28 09:56:02;;;;;;;1.27;0.90;;;;;;;;;;5082190;28;20391;-79
2023/12/28 09:58:29;;;;;;;1.52;1.02;;;;;;;;;;5081359;28;20107;-79
2023/12/28 10:00:54;;;;;;;1.73;0.90;;;;;;;;;;5079553;28;20107;-79
2023/12/28 10:03:20;;;;;;;2.60;1.20;;;;;;;;;;5082242;28;20473;-79
2023/12/28 10:05:46;;;;;;;2.10;1.20;;;;;;;;;;5081488;28;20028;-78
2023/12/28 10:08:13;;;;;;;2.03;1.23;;;;;;;;;;5082265;28;20032;-80
2023/12/28 10:10:38;;;;;;;3.42;1.55;;;;;;;;;;5080186;28;20035;-79
2023/12/28 10:13:03;;;;;;;1.85;1.20;;;;;;;;;;5084800;28;20407;-78
2023/12/28 10:15:31;;;;;;;3.35;1.13;;;;;;;;;;5085825;28;20043;-80
2023/12/28 10:17:56;;;;;;;2.25;1.23;;;;;;;;;;5081957;28;20035;-80
2023/12/28 10:20:21;;;;;;;3.13;1.27;;;;;;;;;;5084593;28;20033;-80
2023/12/28 10:22:47;;;;;;;2.50;1.60;;;;;;;;;;5083675;28;20027;-80
2023/12/28 10:25:12;;;;;;;2.30;1.10;;;;;;;;;;5081400;28;20069;-79
2023/12/28 10:27:40;;;;;;;1.63;1.10;;;;;;;;;;5081344;28;20477;-79
2023/12/28 10:30:06;;;;;;;1.85;1.30;;;;;;;;;;5082481;28;20039;-78
2023/12/28 10:32:32;;;;;;;2.05;1.30;;;;;;;;;;5083389;28;20036;-80
2023/12/28 10:34:57;;;;;;;2.57;1.23;;;;;;;;;;5089712;28;20016;-79
2023/12/28 10:37:26;;;;;;;3.57;1.70;;;;;;;;;;5091768;28;20255;-79
2023/12/28 10:39:54;;;;;;;4.22;1.40;;;;;;;;;;5087365;28;20644;-79
2023/12/28 10:42:31;;;;;;;1.98;1.30;;;;;;;;;;5081232;28;20024;-79
2023/12/28 10:45:03;;;;;;;2.95;1.40;;;;;;;;;;5079868;28;20040;-79
2023/12/28 10:47:32;;;;;;;6.93;1.58;;;;;;;;;;5081153;28;20033;-78
2023/12/28 10:50:02;;;;;;;3.72;1.30;;;;;;;;;;5080793;28;20027;-79
2023/12/28 10:52:28;;;;;;;2.35;1.30;;;;;;;;;;5080651;28;20032;-80
2023/12/28 10:55:33;;;;;;;2.03;1.27;;;;;;;;;;5081174;28;20040;-78
2023/12/28 10:58:10;;;;;;;74.22;17.38;;;;;;;;;;5079748;28;20033;-79
2023/12/28 11:00:42;;;;;;;34.13;11.68;;;;;;;;;;5080674;28;20052;-80
2023/12/28 11:03:10;;;;;;;28.70;11.05;;;;;;;;;;5077397;28;20025;-78
2023/12/28 11:05:37;;;;;;;16.40;6.28;;;;;;;;;;5078798;28;20052;-80
2023/12/28 11:08:04;;;;;;;34.85;9.88;;;;;;;;;;5081021;28;20032;-79
2023/12/28 11:10:30;;;;;;;39.33;11.63;;;;;;;;;;5080271;28;20566;-79
2023/12/28 11:12:57;;;;;;;19.10;6.50;;;;;;;;;;5077790;28;20085;-79
2023/12/28 11:15:23;;;;;;;19.52;7.70;;;;;;;;;;5078730;28;20475;-79
2023/12/28 11:17:49;;;;;;;9.52;4.03;;;;;;;;;;5081285;28;20484;-79
2023/12/28 11:20:15;;;;;;;28.58;10.85;;;;;;;;;;5077699;28;20082;-80
2023/12/28 11:22:41;;;;;;;20.92;7.70;;;;;;;;;;5078849;28;20020;-80
2023/12/28 11:25:14;;;;;;;15.00;5.75;;;;;;;;;;5079618;28;20024;-80
2023/12/28 11:27:40;;;;;;;14.05;4.88;;;;;;;;;;5081707;28;20059;-80
2023/12/28 11:30:06;;;;;;;16.58;7.15;;;;;;;;;;5083047;28;20032;-81
2023/12/28 11:32:42;;;;;;;10.05;4.70;;;;;;;;;;5082894;28;20032;-80
2023/12/28 11:35:10;;;;;;;2.92;1.80;;;;;;;;;;5083993;28;20024;-80
2023/12/28 11:37:38;;;;;;;4.80;2.47;;;;;;;;;;5083458;28;20020;-79
2023/12/28 11:40:13;;;;;;;7.13;3.30;;;;;;;;;;5083251;28;20032;-78
2023/12/28 11:42:47;;;;;;;2.85;1.80;;;;;;;;;;5083460;28;20059;-78
2023/12/28 11:45:12;;;;;;;9.77;3.88;;;;;;;;;;5085077;28;20020;-79
2023/12/28 11:47:38;;;;;;;4.90;2.13;;;;;;;;;;5084745;28;20296;-79
2023/12/28 11:50:07;;;;;;;2.90;1.53;;;;;;;;;;5084218;28;20265;-78
2023/12/28 11:52:32;;;;;;;2.85;1.70;;;;;;;;;;5085742;28;20313;-80
2023/12/28 11:54:59;;;;;;;5.95;2.63;;;;;;;;;;5084135;28;20017;-80
2023/12/28 11:57:25;;;;;;;3.30;1.95;;;;;;;;;;5081483;28;20133;-78
2023/12/28 12:00:02;;;;;;;3.03;1.92;;;;;;;;;;5078600;28;20028;-79
2023/12/28 12:02:27;;;;;;;4.25;2.55;;;;;;;;;;5080020;28;20043;-79
2023/12/28 12:04:54;;;;;;;3.35;1.95;;;;;;;;;;5079146;28;20032;-79
2023/12/28 12:07:19;;;;;;;2.35;1.40;;;;;;;;;;5085330;28;20029;-79
2023/12/28 12:09:45;;;;;;;2.42;1.30;;;;;;;;;;5080366;28;20070;-79
2023/12/28 12:12:10;;;;;;;1.98;1.23;;;;;;;;;;5078281;28;20058;-79
2023/12/28 12:14:36;;;;;;;2.03;1.30;;;;;;;;;;5083360;28;20495;-80
2023/12/28 12:17:02;;;;;;;2.88;1.30;;;;;;;;;;5080050;28;20025;-80
2023/12/28 12:19:27;;;;;;;3.55;1.60;;;;;;;;;;5080174;28;20084;-78
2023/12/28 12:21:53;;;;;;;2.25;1.50;;;;;;;;;;5082427;28;20031;-80
2023/12/28 12:24:19;;;;;;;2.05;1.50;;;;;;;;;;5084919;28;20092;-80
2023/12/28 12:26:49;;;;;;;4.82;1.63;;;;;;;;;;5084181;28;20096;-79
2023/12/28 12:29:15;;;;;;;2.50;1.48;;;;;;;;;;5083991;28;20028;-80
2023/12/28 12:31:42;;;;;;;2.15;1.30;;;;;;;;;;5083130;28;20039;-79
2023/12/28 12:34:09;;;;;;;2.75;1.40;;;;;;;;;;5080488;28;20089;-80
2023/12/28 12:36:34;;;;;;;5.25;1.48;;;;;;;;;;5080679;28;20391;-79
2023/12/28 12:39:00;;;;;;;2.45;1.30;;;;;;;;;;5083346;28;20028;-79
2023/12/28 12:41:26;;;;;;;2.83;1.30;;;;;;;;;;5087191;28;20570;-79
2023/12/28 12:43:52;;;;;;;1.77;1.27;;;;;;;;;;5086470;28;20028;-78
2023/12/28 12:46:17;;;;;;;3.65;1.15;;;;;;;;;;5086366;28;20028;-80
2023/12/28 12:49:29;;;;;;;1.33;1.05;;;;;;;;;;5061377;22;20091;-79
2023/12/28 12:52:02;;;;;;;3.00;1.33;;;;;;;;;;5044997;28;20040;-78
2023/12/28 12:57:45;;;;;;;1.30;1.05;;;;;;;;;;5045566;28;20036;-79
2023/12/28 13:00:11;;;;;;;1.90;1.10;;;;;;;;;;5043617;28;20092;-79
2023/12/28 13:02:36;;;;;;;4.72;1.10;;;;;;;;;;5046581;28;20025;-80
2023/12/28 13:05:05;;;;;;;2.17;0.88;;;;;;;;;;5044100;28;20116;-80
2023/12/28 13:07:31;;;;;;;2.35;1.10;;;;;;;;;;5045448;28;20035;-80
2023/12/28 13:09:57;;;;;;;1.40;1.00;;;;;;;;;;5045803;28;20031;-80
2023/12/28 13:12:24;;;;;;;2.55;1.10;;;;;;;;;;5041635;28;20485;-80
2023/12/28 13:14:51;;;;;;;1.85;1.30;;;;;;;;;;5044012;28;20018;-80
2023/12/28 13:17:22;;;;;;;2.45;1.00;;;;;;;;;;5043805;28;20032;-80
2023/12/28 13:19:48;;;;;;;1.98;1.20;;;;;;;;;;5045516;28;20025;-80
2023/12/28 13:22:13;;;;;;;1.90;1.00;;;;;;;;;;5045211;28;20021;-80
2023/12/28 13:24:38;;;;;;;1.25;1.00;;;;;;;;;;5042294;28;20021;-79
2023/12/28 13:27:04;;;;;;;1.50;1.08;;;;;;;;;;5037984;28;20033;-79
2023/12/28 13:29:29;;;;;;;1.67;1.10;;;;;;;;;;5043962;28;20025;-80
2023/12/28 13:31:55;;;;;;;1.80;1.00;;;;;;;;;;5041866;28;20029;-78
2023/12/28 13:34:29;;;;;;;1.70;1.02;;;;;;;;;;5043281;28;20029;-79
2023/12/28 13:36:55;;;;;;;1.30;0.98;;;;;;;;;;5041957;28;20079;-79
2023/12/28 13:39:38;;;;;;;1.60;1.00;;;;;;;;;;5034480;28;20033;-78
2023/12/28 13:42:09;;;;;;;1.35;0.95;;;;;;;;;;5035105;28;20408;-79
2023/12/28 13:44:37;;;;;;;2.65;1.00;;;;;;;;;;5036071;28;20032;-79
2023/12/28 13:47:17;;;;;;;2.78;1.17;;;;;;;;;;5040870;28;20100;-78
2023/12/28 13:49:49;;;;;;;4.85;1.25;;;;;;;;;;5044348;28;20052;-78
2023/12/28 13:52:20;;;;;;;1.95;1.13;;;;;;;;;;5048004;28;20030;-79
2023/12/28 13:54:48;;;;;;;2.15;1.25;;;;;;;;;;5048314;28;20071;-79
2023/12/28 13:57:21;;;;;;;1.20;0.95;;;;;;;;;;5053136;28;20033;-79
2023/12/28 13:59:46;;;;;;;3.25;1.30;;;;;;;;;;5056628;28;20064;-79
2023/12/28 14:02:11;;;;;;;2.28;1.00;;;;;;;;;;5052644;28;20033;-79
2023/12/28 14:04:36;;;;;;;4.28;1.60;;;;;;;;;;5049523;28;20017;-79
2023/12/28 14:07:03;;;;;;;5.70;1.30;;;;;;;;;;5047843;28;20025;-79
2023/12/28 14:09:31;;;;;;;1.30;1.00;;;;;;;;;;5048406;28;20037;-80
2023/12/28 14:11:59;;;;;;;1.95;1.10;;;;;;;;;;5047959;28;20028;-80
2023/12/28 14:15:07;;;;;;;1.38;1.10;;;;;;;;;;5048642;28;20041;-80
2023/12/28 14:17:48;;;;;;;2.42;1.10;;;;;;;;;;5010011;28;20038;-78
2023/12/28 14:20:21;;;;;;;2.30;1.35;;;;;;;;;;5047594;28;20397;-79
2023/12/28 14:22:56;;;;;;;1.67;1.23;;;;;;;;;;5043196;28;20068;-79
2023/12/28 14:25:37;;;;;;;2.70;1.10;;;;;;;;;;5043052;28;20468;-79
2023/12/28 14:28:03;;;;;;;2.05;1.27;;;;;;;;;;5042741;28;20053;-78
2023/12/28 14:30:29;;;;;;;1.55;1.00;;;;;;;;;;5043153;28;20080;-79
2023/12/28 14:32:57;;;;;;;1.52;1.02;;;;;;;;;;5043379;28;20068;-78
2023/12/28 14:35:22;;;;;;;4.20;1.20;;;;;;;;;;5043138;28;20032;-79
2023/12/28 14:38:05;;;;;;;1.02;0.90;;;;;;;;;;5043442;28;20529;-79
2023/12/28 14:40:42;;;;;;;2.80;0.98;;;;;;;;;;5046154;28;20056;-79
2023/12/28 14:43:15;;;;;;;1.63;1.05;;;;;;;;;;5042012;28;20408;-79